sensor_id;sensor_type;location;lat;lon;timestamp;P1;durP1;ratioP1;P2;durP2;ratioP2
34828;SDS011;21042;47.620;12.188;2024-01-15T00:00:20;27.45;;;12.95;;
34828;SDS011;21042;47.620;12.188;2024-01-15T00:02:47;28.75;;;15.02;;
34828;SDS011;21042;47.620;12.188;2024-01-15T00:05:14;26.50;;;13.18;;
34828;SDS011;21042;47.620;12.188;2024-01-15T00:07:41;24.98;;;12.93;;
34828;SDS011;21042;47.620;12.188;2024-01-15T00:10:08;26.58;;;12.88;;
34828;SDS011;21042;47.620;12.188;2024-01-15T00:12:34;28.05;;;14.05;;
34828;SDS011;21042;47.620;12.188;2024-01-15T00:15:01;29.80;;;13.43;;
34828;SDS011;21042;47.620;12.188;2024-01-15T00:19:55;23.40;;;11.65;;
34828;SDS011;21042;47.620;12.188;2024-01-15T00:22:25;28.92;;;12.57;;
34828;SDS011;21042;47.620;12.188;2024-01-15T00:24:53;25.55;;;12.60;;
34828;SDS011;21042;47.620;12.188;2024-01-15T00:27:20;26.60;;;13.45;;
34828;SDS011;21042;47.620;12.188;2024-01-15T00:29:47;28.80;;;12.73;;
34828;SDS011;21042;47.620;12.188;2024-01-15T00:32:14;20.23;;;10.73;;
34828;SDS011;21042;47.620;12.188;2024-01-15T00:34:41;22.50;;;10.98;;
34828;SDS011;21042;47.620;12.188;2024-01-15T00:37:08;22.42;;;11.18;;
34828;SDS011;21042;47.620;12.188;2024-01-15T00:39:34;22.42;;;11.75;;
34828;SDS011;21042;47.620;12.188;2024-01-15T00:44:29;23.98;;;11.63;;
34828;SDS011;21042;47.620;12.188;2024-01-15T00:46:56;22.95;;;12.68;;
34828;SDS011;21042;47.620;12.188;2024-01-15T00:49:22;26.63;;;13.65;;
34828;SDS011;21042;47.620;12.188;2024-01-15T00:51:50;26.98;;;13.10;;
34828;SDS011;21042;47.620;12.188;2024-01-15T00:54:17;25.08;;;12.68;;
34828;SDS011;21042;47.620;12.188;2024-01-15T00:56:44;24.63;;;12.30;;
34828;SDS011;21042;47.620;12.188;2024-01-15T00:59:11;27.35;;;12.68;;
34828;SDS011;21042;47.620;12.188;2024-01-15T01:01:41;28.80;;;12.15;;
34828;SDS011;21042;47.620;12.188;2024-01-15T01:04:09;28.40;;;13.55;;
34828;SDS011;21042;47.620;12.188;2024-01-15T01:06:36;23.73;;;12.80;;
34828;SDS011;21042;47.620;12.188;2024-01-15T01:09:03;29.13;;;13.88;;
34828;SDS011;21042;47.620;12.188;2024-01-15T01:11:31;22.52;;;12.27;;
34828;SDS011;21042;47.620;12.188;2024-01-15T01:13:58;27.13;;;13.60;;
34828;SDS011;21042;47.620;12.188;2024-01-15T01:16:24;27.58;;;13.43;;
34828;SDS011;21042;47.620;12.188;2024-01-15T01:18:51;28.67;;;13.73;;
34828;SDS011;21042;47.620;12.188;2024-01-15T01:21:19;31.63;;;14.05;;
34828;SDS011;21042;47.620;12.188;2024-01-15T01:23:45;27.80;;;13.10;;
34828;SDS011;21042;47.620;12.188;2024-01-15T01:26:15;25.20;;;14.20;;
34828;SDS011;21042;47.620;12.188;2024-01-15T01:28:42;23.20;;;13.55;;
34828;SDS011;21042;47.620;12.188;2024-01-15T01:31:09;23.48;;;13.55;;
34828;SDS011;21042;47.620;12.188;2024-01-15T01:33:37;25.25;;;12.55;;
34828;SDS011;21042;47.620;12.188;2024-01-15T01:36:09;23.55;;;13.27;;
34828;SDS011;21042;47.620;12.188;2024-01-15T01:38:36;27.30;;;12.15;;
34828;SDS011;21042;47.620;12.188;2024-01-15T01:41:03;27.00;;;13.10;;
34828;SDS011;21042;47.620;12.188;2024-01-15T01:43:30;24.98;;;13.05;;
34828;SDS011;21042;47.620;12.188;2024-01-15T01:45:57;25.52;;;13.18;;
34828;SDS011;21042;47.620;12.188;2024-01-15T01:48:24;26.70;;;13.25;;
34828;SDS011;21042;47.620;12.188;2024-01-15T01:50:59;26.58;;;13.27;;
34828;SDS011;21042;47.620;12.188;2024-01-15T01:53:28;31.65;;;13.05;;
34828;SDS011;21042;47.620;12.188;2024-01-15T01:55:57;25.40;;;13.13;;
34828;SDS011;21042;47.620;12.188;2024-01-15T01:58:24;23.33;;;12.60;;
34828;SDS011;21042;47.620;12.188;2024-01-15T02:00:52;22.05;;;12.25;;
34828;SDS011;21042;47.620;12.188;2024-01-15T02:03:20;29.25;;;13.65;;
34828;SDS011;21042;47.620;12.188;2024-01-15T02:05:47;24.90;;;12.00;;
34828;SDS011;21042;47.620;12.188;2024-01-15T02:08:16;25.30;;;13.73;;
34828;SDS011;21042;47.620;12.188;2024-01-15T02:13:09;24.20;;;12.30;;
34828;SDS011;21042;47.620;12.188;2024-01-15T02:15:37;25.52;;;12.60;;
34828;SDS011;21042;47.620;12.188;2024-01-15T02:18:04;26.17;;;13.25;;
34828;SDS011;21042;47.620;12.188;2024-01-15T02:20:33;22.70;;;12.48;;
34828;SDS011;21042;47.620;12.188;2024-01-15T02:23:07;26.10;;;12.95;;
34828;SDS011;21042;47.620;12.188;2024-01-15T02:25:41;25.00;;;13.32;;
34828;SDS011;21042;47.620;12.188;2024-01-15T02:28:10;25.75;;;13.93;;
34828;SDS011;21042;47.620;12.188;2024-01-15T02:30:38;23.45;;;13.48;;
34828;SDS011;21042;47.620;12.188;2024-01-15T02:33:07;28.13;;;14.40;;
34828;SDS011;21042;47.620;12.188;2024-01-15T02:35:34;23.02;;;12.90;;
34828;SDS011;21042;47.620;12.188;2024-01-15T02:38:05;22.05;;;11.90;;
34828;SDS011;21042;47.620;12.188;2024-01-15T02:40:32;25.65;;;13.05;;
34828;SDS011;21042;47.620;12.188;2024-01-15T02:43:00;27.65;;;12.68;;
34828;SDS011;21042;47.620;12.188;2024-01-15T02:45:27;24.65;;;13.02;;
34828;SDS011;21042;47.620;12.188;2024-01-15T02:47:54;25.50;;;14.23;;
34828;SDS011;21042;47.620;12.188;2024-01-15T02:50:21;21.05;;;12.95;;
34828;SDS011;21042;47.620;12.188;2024-01-15T02:52:47;28.27;;;13.95;;
34828;SDS011;21042;47.620;12.188;2024-01-15T02:55:14;23.48;;;11.80;;
34828;SDS011;21042;47.620;12.188;2024-01-15T02:57:41;20.98;;;11.48;;
34828;SDS011;21042;47.620;12.188;2024-01-15T03:00:08;13.82;;;7.43;;
34828;SDS011;21042;47.620;12.188;2024-01-15T03:05:06;16.85;;;7.30;;
34828;SDS011;21042;47.620;12.188;2024-01-15T03:07:34;18.90;;;7.93;;
34828;SDS011;21042;47.620;12.188;2024-01-15T03:10:00;14.60;;;7.55;;
34828;SDS011;21042;47.620;12.188;2024-01-15T03:12:27;20.52;;;8.95;;
34828;SDS011;21042;47.620;12.188;2024-01-15T03:14:54;17.65;;;10.18;;
34828;SDS011;21042;47.620;12.188;2024-01-15T03:17:21;24.70;;;13.15;;
34828;SDS011;21042;47.620;12.188;2024-01-15T03:19:48;23.52;;;12.40;;
34828;SDS011;21042;47.620;12.188;2024-01-15T03:22:16;29.80;;;13.93;;
34828;SDS011;21042;47.620;12.188;2024-01-15T03:24:44;28.83;;;14.48;;
34828;SDS011;21042;47.620;12.188;2024-01-15T03:29:37;21.70;;;11.55;;
34828;SDS011;21042;47.620;12.188;2024-01-15T03:32:06;21.75;;;11.98;;
34828;SDS011;21042;47.620;12.188;2024-01-15T03:34:33;26.58;;;11.50;;
34828;SDS011;21042;47.620;12.188;2024-01-15T03:37:00;24.98;;;11.77;;
34828;SDS011;21042;47.620;12.188;2024-01-15T03:39:26;24.27;;;13.15;;
34828;SDS011;21042;47.620;12.188;2024-01-15T03:41:53;24.95;;;12.70;;
34828;SDS011;21042;47.620;12.188;2024-01-15T03:44:20;23.33;;;11.23;;
34828;SDS011;21042;47.620;12.188;2024-01-15T03:46:47;24.45;;;12.13;;
34828;SDS011;21042;47.620;12.188;2024-01-15T03:49:13;22.17;;;9.75;;
34828;SDS011;21042;47.620;12.188;2024-01-15T03:51:40;28.65;;;11.10;;
34828;SDS011;21042;47.620;12.188;2024-01-15T03:54:07;27.30;;;11.73;;
34828;SDS011;21042;47.620;12.188;2024-01-15T03:56:35;25.13;;;10.70;;
34828;SDS011;21042;47.620;12.188;2024-01-15T03:59:01;22.00;;;9.77;;
34828;SDS011;21042;47.620;12.188;2024-01-15T04:03:56;23.35;;;9.60;;
34828;SDS011;21042;47.620;12.188;2024-01-15T04:06:22;26.55;;;10.27;;
34828;SDS011;21042;47.620;12.188;2024-01-15T04:08:49;21.58;;;9.82;;
34828;SDS011;21042;47.620;12.188;2024-01-15T04:11:16;23.13;;;9.65;;
34828;SDS011;21042;47.620;12.188;2024-01-15T04:13:43;19.80;;;8.70;;
34828;SDS011;21042;47.620;12.188;2024-01-15T04:16:10;26.23;;;9.95;;
34828;SDS011;21042;47.620;12.188;2024-01-15T04:18:36;25.30;;;9.10;;
34828;SDS011;21042;47.620;12.188;2024-01-15T04:21:04;17.95;;;8.65;;
34828;SDS011;21042;47.620;12.188;2024-01-15T04:23:32;20.55;;;8.85;;
34828;SDS011;21042;47.620;12.188;2024-01-15T04:28:26;21.73;;;8.77;;
34828;SDS011;21042;47.620;12.188;2024-01-15T04:30:53;20.20;;;7.93;;
34828;SDS011;21042;47.620;12.188;2024-01-15T04:33:20;26.95;;;7.82;;
34828;SDS011;21042;47.620;12.188;2024-01-15T04:35:47;19.20;;;8.02;;
34828;SDS011;21042;47.620;12.188;2024-01-15T04:38:14;20.30;;;8.10;;
34828;SDS011;21042;47.620;12.188;2024-01-15T04:40:41;17.85;;;8.35;;
34828;SDS011;21042;47.620;12.188;2024-01-15T04:43:07;18.33;;;8.80;;
34828;SDS011;21042;47.620;12.188;2024-01-15T04:45:34;16.52;;;7.55;;
34828;SDS011;21042;47.620;12.188;2024-01-15T04:48:01;18.08;;;7.88;;
34828;SDS011;21042;47.620;12.188;2024-01-15T04:50:29;15.70;;;7.22;;
34828;SDS011;21042;47.620;12.188;2024-01-15T04:52:56;23.90;;;8.27;;
34828;SDS011;21042;47.620;12.188;2024-01-15T04:55:22;17.63;;;7.72;;
34828;SDS011;21042;47.620;12.188;2024-01-15T04:57:49;18.02;;;6.90;;
34828;SDS011;21042;47.620;12.188;2024-01-15T05:00:16;14.82;;;6.55;;
34828;SDS011;21042;47.620;12.188;2024-01-15T05:02:43;16.70;;;7.30;;
34828;SDS011;21042;47.620;12.188;2024-01-15T05:05:10;17.38;;;6.68;;
34828;SDS011;21042;47.620;12.188;2024-01-15T05:07:37;17.77;;;6.82;;
34828;SDS011;21042;47.620;12.188;2024-01-15T05:10:04;9.73;;;4.68;;
34828;SDS011;21042;47.620;12.188;2024-01-15T05:12:31;19.77;;;7.18;;
34828;SDS011;21042;47.620;12.188;2024-01-15T05:14:58;17.80;;;5.72;;
34828;SDS011;21042;47.620;12.188;2024-01-15T05:17:25;11.73;;;5.30;;
34828;SDS011;21042;47.620;12.188;2024-01-15T05:19:51;13.02;;;5.88;;
34828;SDS011;21042;47.620;12.188;2024-01-15T05:22:18;15.50;;;6.32;;
34828;SDS011;21042;47.620;12.188;2024-01-15T05:24:45;13.77;;;6.35;;
34828;SDS011;21042;47.620;12.188;2024-01-15T05:27:12;12.52;;;5.22;;
34828;SDS011;21042;47.620;12.188;2024-01-15T05:29:41;11.50;;;5.00;;
34828;SDS011;21042;47.620;12.188;2024-01-15T05:32:08;12.35;;;5.13;;
34828;SDS011;21042;47.620;12.188;2024-01-15T05:34:34;12.65;;;5.25;;
34828;SDS011;21042;47.620;12.188;2024-01-15T05:37:01;13.07;;;5.35;;
34828;SDS011;21042;47.620;12.188;2024-01-15T05:39:28;13.43;;;4.95;;
34828;SDS011;21042;47.620;12.188;2024-01-15T05:41:55;20.75;;;6.03;;
34828;SDS011;21042;47.620;12.188;2024-01-15T05:44:22;14.13;;;5.32;;
34828;SDS011;21042;47.620;12.188;2024-01-15T05:46:49;10.82;;;4.60;;
34828;SDS011;21042;47.620;12.188;2024-01-15T05:49:15;8.23;;;4.18;;
34828;SDS011;21042;47.620;12.188;2024-01-15T05:51:42;10.85;;;4.95;;
34828;SDS011;21042;47.620;12.188;2024-01-15T05:54:09;10.15;;;4.20;;
34828;SDS011;21042;47.620;12.188;2024-01-15T05:56:36;11.60;;;4.05;;
34828;SDS011;21042;47.620;12.188;2024-01-15T05:59:03;10.35;;;5.13;;
34828;SDS011;21042;47.620;12.188;2024-01-15T06:01:30;10.23;;;4.60;;
34828;SDS011;21042;47.620;12.188;2024-01-15T06:03:56;9.15;;;4.05;;
34828;SDS011;21042;47.620;12.188;2024-01-15T06:06:24;9.13;;;3.53;;
34828;SDS011;21042;47.620;12.188;2024-01-15T06:08:51;10.73;;;4.30;;
34828;SDS011;21042;47.620;12.188;2024-01-15T06:11:18;9.07;;;3.92;;
34828;SDS011;21042;47.620;12.188;2024-01-15T06:13:44;9.73;;;3.88;;
34828;SDS011;21042;47.620;12.188;2024-01-15T06:18:40;6.30;;;3.20;;
34828;SDS011;21042;47.620;12.188;2024-01-15T06:21:06;8.23;;;3.85;;
34828;SDS011;21042;47.620;12.188;2024-01-15T06:23:34;7.70;;;3.17;;
34828;SDS011;21042;47.620;12.188;2024-01-15T06:26:00;5.47;;;2.47;;
34828;SDS011;21042;47.620;12.188;2024-01-15T06:28:30;7.47;;;3.50;;
34828;SDS011;21042;47.620;12.188;2024-01-15T06:30:57;7.25;;;3.65;;
34828;SDS011;21042;47.620;12.188;2024-01-15T06:33:24;6.80;;;3.58;;
34828;SDS011;21042;47.620;12.188;2024-01-15T06:35:51;8.68;;;3.83;;
34828;SDS011;21042;47.620;12.188;2024-01-15T06:38:18;9.40;;;4.15;;
34828;SDS011;21042;47.620;12.188;2024-01-15T06:40:45;8.40;;;3.83;;
34828;SDS011;21042;47.620;12.188;2024-01-15T06:43:18;7.35;;;3.50;;
34828;SDS011;21042;47.620;12.188;2024-01-15T06:45:45;8.55;;;3.78;;
34828;SDS011;21042;47.620;12.188;2024-01-15T06:48:11;10.27;;;3.50;;
34828;SDS011;21042;47.620;12.188;2024-01-15T06:50:40;7.88;;;3.75;;
34828;SDS011;21042;47.620;12.188;2024-01-15T06:53:07;11.80;;;4.25;;
34828;SDS011;21042;47.620;12.188;2024-01-15T06:55:34;11.57;;;3.75;;
34828;SDS011;21042;47.620;12.188;2024-01-15T06:58:01;9.30;;;3.60;;
34828;SDS011;21042;47.620;12.188;2024-01-15T07:00:28;9.32;;;3.70;;
34828;SDS011;21042;47.620;12.188;2024-01-15T07:05:22;7.05;;;3.58;;
34828;SDS011;21042;47.620;12.188;2024-01-15T07:07:49;10.32;;;4.25;;
34828;SDS011;21042;47.620;12.188;2024-01-15T07:10:16;10.70;;;4.03;;
34828;SDS011;21042;47.620;12.188;2024-01-15T07:12:43;11.70;;;3.95;;
34828;SDS011;21042;47.620;12.188;2024-01-15T07:15:11;7.15;;;3.50;;
34828;SDS011;21042;47.620;12.188;2024-01-15T07:17:38;6.72;;;3.00;;
34828;SDS011;21042;47.620;12.188;2024-01-15T07:20:06;10.48;;;3.58;;
34828;SDS011;21042;47.620;12.188;2024-01-15T07:22:36;9.40;;;3.85;;
34828;SDS011;21042;47.620;12.188;2024-01-15T07:25:04;7.70;;;3.55;;
34828;SDS011;21042;47.620;12.188;2024-01-15T07:27:31;9.13;;;3.42;;
34828;SDS011;21042;47.620;12.188;2024-01-15T07:32:28;7.43;;;3.50;;
34828;SDS011;21042;47.620;12.188;2024-01-15T07:34:55;14.07;;;4.28;;
34828;SDS011;21042;47.620;12.188;2024-01-15T07:37:22;9.50;;;3.47;;
34828;SDS011;21042;47.620;12.188;2024-01-15T07:39:50;10.60;;;3.97;;
34828;SDS011;21042;47.620;12.188;2024-01-15T07:42:17;8.85;;;4.00;;
34828;SDS011;21042;47.620;12.188;2024-01-15T07:44:43;5.32;;;3.05;;
34828;SDS011;21042;47.620;12.188;2024-01-15T07:47:11;6.60;;;3.55;;
34828;SDS011;21042;47.620;12.188;2024-01-15T07:49:38;9.73;;;3.35;;
34828;SDS011;21042;47.620;12.188;2024-01-15T07:52:05;7.07;;;2.90;;
34828;SDS011;21042;47.620;12.188;2024-01-15T07:54:32;5.28;;;2.90;;
34828;SDS011;21042;47.620;12.188;2024-01-15T07:57:00;7.35;;;3.60;;
34828;SDS011;21042;47.620;12.188;2024-01-15T07:59:29;6.57;;;3.47;;
34828;SDS011;21042;47.620;12.188;2024-01-15T08:01:56;6.63;;;3.28;;
34828;SDS011;21042;47.620;12.188;2024-01-15T08:04:24;6.55;;;2.85;;
34828;SDS011;21042;47.620;12.188;2024-01-15T08:06:51;5.53;;;3.13;;
34828;SDS011;21042;47.620;12.188;2024-01-15T08:09:18;6.72;;;3.42;;
34828;SDS011;21042;47.620;12.188;2024-01-15T08:11:48;5.50;;;3.05;;
34828;SDS011;21042;47.620;12.188;2024-01-15T08:14:18;8.02;;;3.00;;
34828;SDS011;21042;47.620;12.188;2024-01-15T08:16:44;7.70;;;3.03;;
34828;SDS011;21042;47.620;12.188;2024-01-15T08:19:11;5.85;;;2.97;;
34828;SDS011;21042;47.620;12.188;2024-01-15T08:24:05;6.18;;;2.83;;
34828;SDS011;21042;47.620;12.188;2024-01-15T08:26:32;8.23;;;2.63;;
34828;SDS011;21042;47.620;12.188;2024-01-15T08:28:59;7.97;;;3.33;;
34828;SDS011;21042;47.620;12.188;2024-01-15T08:31:26;10.10;;;3.22;;
34828;SDS011;21042;47.620;12.188;2024-01-15T08:33:54;6.20;;;2.83;;
34828;SDS011;21042;47.620;12.188;2024-01-15T08:36:22;6.38;;;2.70;;
34828;SDS011;21042;47.620;12.188;2024-01-15T08:38:50;7.05;;;2.70;;
34828;SDS011;21042;47.620;12.188;2024-01-15T08:41:17;6.22;;;3.58;;
34828;SDS011;21042;47.620;12.188;2024-01-15T08:43:44;4.75;;;2.13;;
34828;SDS011;21042;47.620;12.188;2024-01-15T08:46:11;10.15;;;3.63;;
34828;SDS011;21042;47.620;12.188;2024-01-15T08:48:37;6.82;;;3.13;;
34828;SDS011;21042;47.620;12.188;2024-01-15T08:51:06;7.82;;;2.97;;
34828;SDS011;21042;47.620;12.188;2024-01-15T08:53:34;9.57;;;3.50;;
34828;SDS011;21042;47.620;12.188;2024-01-15T08:56:01;11.90;;;4.07;;
34828;SDS011;21042;47.620;12.188;2024-01-15T08:58:28;8.30;;;3.40;;
34828;SDS011;21042;47.620;12.188;2024-01-15T09:00:55;7.25;;;3.60;;
34828;SDS011;21042;47.620;12.188;2024-01-15T09:03:21;8.05;;;3.55;;
34828;SDS011;21042;47.620;12.188;2024-01-15T09:05:48;7.03;;;3.53;;
34828;SDS011;21042;47.620;12.188;2024-01-15T09:08:16;7.20;;;3.25;;
34828;SDS011;21042;47.620;12.188;2024-01-15T09:10:43;9.85;;;3.30;;
34828;SDS011;21042;47.620;12.188;2024-01-15T09:13:10;11.70;;;4.07;;
34828;SDS011;21042;47.620;12.188;2024-01-15T09:15:37;8.70;;;3.95;;
34828;SDS011;21042;47.620;12.188;2024-01-15T09:18:03;6.30;;;3.55;;
34828;SDS011;21042;47.620;12.188;2024-01-15T09:20:33;6.75;;;3.30;;
34828;SDS011;21042;47.620;12.188;2024-01-15T09:23:00;8.25;;;3.90;;
34828;SDS011;21042;47.620;12.188;2024-01-15T09:25:27;11.07;;;3.80;;
34828;SDS011;21042;47.620;12.188;2024-01-15T09:30:21;7.32;;;3.28;;
34828;SDS011;21042;47.620;12.188;2024-01-15T09:32:48;8.70;;;3.42;;
34828;SDS011;21042;47.620;12.188;2024-01-15T09:35:15;9.45;;;4.00;;
34828;SDS011;21042;47.620;12.188;2024-01-15T09:37:42;9.93;;;3.83;;
34828;SDS011;21042;47.620;12.188;2024-01-15T09:40:14;9.25;;;3.92;;
34828;SDS011;21042;47.620;12.188;2024-01-15T09:42:42;8.75;;;3.03;;
34828;SDS011;21042;47.620;12.188;2024-01-15T09:45:10;7.15;;;3.20;;
34828;SDS011;21042;47.620;12.188;2024-01-15T09:50:10;8.82;;;3.58;;
34828;SDS011;21042;47.620;12.188;2024-01-15T09:52:37;12.75;;;4.10;;
34828;SDS011;21042;47.620;12.188;2024-01-15T09:55:05;8.18;;;3.92;;
34828;SDS011;21042;47.620;12.188;2024-01-15T09:57:32;7.93;;;3.13;;
34828;SDS011;21042;47.620;12.188;2024-01-15T09:59:59;6.75;;;3.13;;
34828;SDS011;21042;47.620;12.188;2024-01-15T10:02:30;7.68;;;3.45;;
34828;SDS011;21042;47.620;12.188;2024-01-15T10:04:57;10.05;;;3.63;;
34828;SDS011;21042;47.620;12.188;2024-01-15T10:07:25;7.40;;;3.55;;
34828;SDS011;21042;47.620;12.188;2024-01-15T10:09:52;8.60;;;3.92;;
34828;SDS011;21042;47.620;12.188;2024-01-15T10:12:20;7.90;;;3.35;;
34828;SDS011;21042;47.620;12.188;2024-01-15T10:14:50;7.97;;;3.65;;
34828;SDS011;21042;47.620;12.188;2024-01-15T10:17:17;7.78;;;3.38;;
34828;SDS011;21042;47.620;12.188;2024-01-15T10:19:47;7.43;;;3.20;;
34828;SDS011;21042;47.620;12.188;2024-01-15T10:22:16;7.38;;;3.17;;
34828;SDS011;21042;47.620;12.188;2024-01-15T10:24:46;6.35;;;3.15;;
34828;SDS011;21042;47.620;12.188;2024-01-15T10:27:14;7.45;;;3.63;;
34828;SDS011;21042;47.620;12.188;2024-01-15T10:29:42;7.95;;;3.75;;
34828;SDS011;21042;47.620;12.188;2024-01-15T10:32:09;8.93;;;3.60;;
34828;SDS011;21042;47.620;12.188;2024-01-15T10:34:37;10.18;;;3.90;;
34828;SDS011;21042;47.620;12.188;2024-01-15T10:37:08;9.65;;;4.22;;
34828;SDS011;21042;47.620;12.188;2024-01-15T10:39:36;9.73;;;4.57;;
34828;SDS011;21042;47.620;12.188;2024-01-15T10:42:04;9.13;;;3.50;;
34828;SDS011;21042;47.620;12.188;2024-01-15T10:44:32;9.25;;;4.15;;
34828;SDS011;21042;47.620;12.188;2024-01-15T10:46:59;9.00;;;4.03;;
34828;SDS011;21042;47.620;12.188;2024-01-15T10:49:27;10.27;;;4.38;;
34828;SDS011;21042;47.620;12.188;2024-01-15T10:51:59;10.13;;;4.43;;
34828;SDS011;21042;47.620;12.188;2024-01-15T10:54:27;9.88;;;4.28;;
34828;SDS011;21042;47.620;12.188;2024-01-15T10:56:56;11.65;;;4.78;;
34828;SDS011;21042;47.620;12.188;2024-01-15T10:59:23;10.93;;;4.55;;
34828;SDS011;21042;47.620;12.188;2024-01-15T11:01:51;10.82;;;4.90;;
34828;SDS011;21042;47.620;12.188;2024-01-15T11:04:21;13.73;;;5.45;;
34828;SDS011;21042;47.620;12.188;2024-01-15T11:06:52;18.55;;;6.82;;
34828;SDS011;21042;47.620;12.188;2024-01-15T11:09:22;10.57;;;4.95;;
34828;SDS011;21042;47.620;12.188;2024-01-15T11:11:52;22.60;;;5.28;;
34828;SDS011;21042;47.620;12.188;2024-01-15T11:17:11;13.40;;;4.13;;
34828;SDS011;21042;47.620;12.188;2024-01-15T11:19:46;18.23;;;3.85;;
34828;SDS011;21042;47.620;12.188;2024-01-15T11:24:56;9.88;;;3.53;;
34828;SDS011;21042;47.620;12.188;2024-01-15T11:27:40;8.52;;;3.75;;
34828;SDS011;21042;47.620;12.188;2024-01-15T11:30:08;18.13;;;4.68;;
34828;SDS011;21042;47.620;12.188;2024-01-15T11:32:40;10.13;;;4.72;;
34828;SDS011;21042;47.620;12.188;2024-01-15T11:35:07;19.25;;;4.78;;
34828;SDS011;21042;47.620;12.188;2024-01-15T11:40:18;9.25;;;4.07;;
34828;SDS011;21042;47.620;12.188;2024-01-15T11:42:49;14.55;;;4.20;;
34828;SDS011;21042;47.620;12.188;2024-01-15T11:45:19;20.48;;;4.57;;
34828;SDS011;21042;47.620;12.188;2024-01-15T11:50:32;13.05;;;4.50;;
34828;SDS011;21042;47.620;12.188;2024-01-15T11:53:00;20.17;;;4.68;;
34828;SDS011;21042;47.620;12.188;2024-01-15T11:55:36;22.95;;;4.22;;
34828;SDS011;21042;47.620;12.188;2024-01-15T11:58:10;21.13;;;5.03;;
34828;SDS011;21042;47.620;12.188;2024-01-15T12:00:40;11.43;;;4.50;;
34828;SDS011;21042;47.620;12.188;2024-01-15T12:03:09;15.48;;;4.95;;
34828;SDS011;21042;47.620;12.188;2024-01-15T12:05:36;8.95;;;4.50;;
34828;SDS011;21042;47.620;12.188;2024-01-15T12:08:04;26.30;;;5.80;;
34828;SDS011;21042;47.620;12.188;2024-01-15T12:10:38;13.93;;;4.78;;
34828;SDS011;21042;47.620;12.188;2024-01-15T12:13:14;14.35;;;5.05;;
34828;SDS011;21042;47.620;12.188;2024-01-15T12:15:42;18.75;;;4.75;;
34828;SDS011;21042;47.620;12.188;2024-01-15T12:18:11;10.45;;;4.60;;
34828;SDS011;21042;47.620;12.188;2024-01-15T12:20:40;11.10;;;4.50;;
34828;SDS011;21042;47.620;12.188;2024-01-15T12:23:09;15.65;;;4.22;;
34828;SDS011;21042;47.620;12.188;2024-01-15T12:25:39;14.90;;;4.78;;
34828;SDS011;21042;47.620;12.188;2024-01-15T12:30:34;13.40;;;4.85;;
34828;SDS011;21042;47.620;12.188;2024-01-15T12:33:03;18.73;;;5.28;;
34828;SDS011;21042;47.620;12.188;2024-01-15T12:35:31;14.10;;;4.53;;
34828;SDS011;21042;47.620;12.188;2024-01-15T12:38:00;13.60;;;4.78;;
34828;SDS011;21042;47.620;12.188;2024-01-15T12:40:30;13.80;;;4.72;;
34828;SDS011;21042;47.620;12.188;2024-01-15T12:42:59;9.68;;;4.45;;
34828;SDS011;21042;47.620;12.188;2024-01-15T12:45:26;12.15;;;4.70;;
34828;SDS011;21042;47.620;12.188;2024-01-15T12:47:53;13.90;;;5.85;;
34828;SDS011;21042;47.620;12.188;2024-01-15T12:52:50;9.80;;;5.15;;
34828;SDS011;21042;47.620;12.188;2024-01-15T12:55:16;11.77;;;4.18;;
34828;SDS011;21042;47.620;12.188;2024-01-15T12:57:43;13.23;;;5.60;;
34828;SDS011;21042;47.620;12.188;2024-01-15T13:00:12;17.33;;;5.75;;
34828;SDS011;21042;47.620;12.188;2024-01-15T13:02:41;10.07;;;4.78;;
34828;SDS011;21042;47.620;12.188;2024-01-15T13:05:09;11.82;;;4.82;;
34828;SDS011;21042;47.620;12.188;2024-01-15T13:07:41;17.45;;;5.22;;
34828;SDS011;21042;47.620;12.188;2024-01-15T13:10:09;12.40;;;5.18;;
34828;SDS011;21042;47.620;12.188;2024-01-15T13:12:37;15.50;;;5.65;;
34828;SDS011;21042;47.620;12.188;2024-01-15T13:15:05;13.55;;;4.95;;
34828;SDS011;21042;47.620;12.188;2024-01-15T13:17:39;16.98;;;5.68;;
34828;SDS011;21042;47.620;12.188;2024-01-15T13:20:06;23.17;;;13.23;;
34828;SDS011;21042;47.620;12.188;2024-01-15T13:22:35;29.70;;;10.43;;
34828;SDS011;21042;47.620;12.188;2024-01-15T13:25:02;15.98;;;8.00;;
34828;SDS011;21042;47.620;12.188;2024-01-15T13:27:32;14.85;;;7.63;;
34828;SDS011;21042;47.620;12.188;2024-01-15T13:30:01;19.83;;;8.50;;
34828;SDS011;21042;47.620;12.188;2024-01-15T13:32:28;21.90;;;9.80;;
34828;SDS011;21042;47.620;12.188;2024-01-15T13:34:56;17.38;;;7.85;;
34828;SDS011;21042;47.620;12.188;2024-01-15T13:37:23;28.98;;;10.25;;
34828;SDS011;21042;47.620;12.188;2024-01-15T13:39:51;16.65;;;6.38;;
34828;SDS011;21042;47.620;12.188;2024-01-15T13:42:18;21.95;;;9.02;;
34828;SDS011;21042;47.620;12.188;2024-01-15T13:44:48;25.05;;;9.10;;
34828;SDS011;21042;47.620;12.188;2024-01-15T13:47:15;44.15;;;16.20;;
34828;SDS011;21042;47.620;12.188;2024-01-15T13:49:41;40.92;;;15.52;;
34828;SDS011;21042;47.620;12.188;2024-01-15T13:52:08;36.53;;;14.57;;
34828;SDS011;21042;47.620;12.188;2024-01-15T13:54:35;56.70;;;19.52;;
34828;SDS011;21042;47.620;12.188;2024-01-15T13:57:15;34.88;;;16.10;;
34828;SDS011;21042;47.620;12.188;2024-01-15T13:59:42;51.10;;;19.27;;
34828;SDS011;21042;47.620;12.188;2024-01-15T14:02:09;59.25;;;24.50;;
34828;SDS011;21042;47.620;12.188;2024-01-15T14:04:37;22.60;;;10.38;;
34828;SDS011;21042;47.620;12.188;2024-01-15T14:07:04;18.00;;;8.52;;
34828;SDS011;21042;47.620;12.188;2024-01-15T14:09:32;24.20;;;9.65;;
34828;SDS011;21042;47.620;12.188;2024-01-15T14:11:59;19.20;;;8.90;;
34828;SDS011;21042;47.620;12.188;2024-01-15T14:14:26;43.40;;;14.88;;
34828;SDS011;21042;47.620;12.188;2024-01-15T14:16:53;23.30;;;10.93;;
34828;SDS011;21042;47.620;12.188;2024-01-15T14:19:20;24.75;;;10.68;;
34828;SDS011;21042;47.620;12.188;2024-01-15T14:21:48;29.02;;;10.68;;
34828;SDS011;21042;47.620;12.188;2024-01-15T14:24:15;33.60;;;13.02;;
34828;SDS011;21042;47.620;12.188;2024-01-15T14:26:43;16.90;;;6.53;;
34828;SDS011;21042;47.620;12.188;2024-01-15T14:29:10;13.38;;;6.03;;
34828;SDS011;21042;47.620;12.188;2024-01-15T14:31:38;14.30;;;6.43;;
34828;SDS011;21042;47.620;12.188;2024-01-15T14:34:06;11.27;;;6.00;;
34828;SDS011;21042;47.620;12.188;2024-01-15T14:36:34;8.38;;;3.95;;
34828;SDS011;21042;47.620;12.188;2024-01-15T14:41:28;13.68;;;4.85;;
34828;SDS011;21042;47.620;12.188;2024-01-15T14:43:55;9.27;;;3.95;;
34828;SDS011;21042;47.620;12.188;2024-01-15T14:46:23;6.90;;;2.97;;
34828;SDS011;21042;47.620;12.188;2024-01-15T14:48:50;7.97;;;3.20;;
34828;SDS011;21042;47.620;12.188;2024-01-15T14:51:17;5.47;;;2.80;;
34828;SDS011;21042;47.620;12.188;2024-01-15T14:56:11;5.35;;;2.35;;
34828;SDS011;21042;47.620;12.188;2024-01-15T14:58:41;7.85;;;2.90;;
34828;SDS011;21042;47.620;12.188;2024-01-15T15:03:36;4.70;;;2.10;;
34828;SDS011;21042;47.620;12.188;2024-01-15T15:06:03;4.18;;;2.03;;
34828;SDS011;21042;47.620;12.188;2024-01-15T15:10:57;8.43;;;3.40;;
34828;SDS011;21042;47.620;12.188;2024-01-15T15:13:24;10.60;;;3.90;;
34828;SDS011;21042;47.620;12.188;2024-01-15T15:16:09;8.70;;;3.65;;
34828;SDS011;21042;47.620;12.188;2024-01-15T15:18:37;13.80;;;5.07;;
34828;SDS011;21042;47.620;12.188;2024-01-15T15:21:04;17.15;;;5.80;;